Time;durP1;ratioP1;P1;durP2;ratioP2;P2;SDS_P1;SDS_P2;PMS_P1;PMS_P2;Temp;Humidity;BMP_temperature;BMP_pressure;BME280_temperature;BME280_humidity;BME280_pressure;Samples;Min_cycle;Max_cycle;Signal;HPM_P1;HPM_P2
2024/04/18 00:02:13;;;;;;;9.52;5.03;;;3.80;99.90;;;;;;5492680;26;20042;-74
2024/04/18 00:04:39;;;;;;;7.63;4.60;;;3.80;99.90;;;;;;5483760;26;20002;-75
2024/04/18 00:07:05;;;;;;;7.35;4.80;;;3.90;99.90;;;;;;5497489;26;20001;-74
2024/04/18 00:09:30;;;;;;;7.07;4.72;;;3.90;99.90;;;;;;5495225;26;20511;-75
2024/04/18 00:11:56;;;;;;;11.15;5.05;;;4.00;99.90;;;;;;5493437;26;20006;-72
2024/04/18 00:14:22;;;;;;;6.75;4.90;;;4.00;99.90;;;;;;5472102;26;19994;-74
2024/04/18 00:16:47;;;;;;;10.75;5.88;;;4.10;99.90;;;;;;5485823;26;20050;-74
2024/04/18 00:19:14;;;;;;;8.80;5.90;;;4.20;99.90;;;;;;5488698;26;20435;-73
2024/04/18 00:21:40;;;;;;;7.13;5.13;;;4.20;99.90;;;;;;5488210;26;20078;-74
2024/04/18 00:24:05;;;;;;;9.38;5.45;;;4.10;99.90;;;;;;5488235;26;20443;-74
2024/04/18 00:26:32;;;;;;;10.07;5.68;;;4.20;99.90;;;;;;5487620;26;20003;-74
2024/04/18 00:28:57;;;;;;;9.32;5.43;;;4.20;99.90;;;;;;5488028;26;20049;-72
2024/04/18 00:31:23;;;;;;;8.07;5.63;;;4.20;99.90;;;;;;5488516;26;19994;-73
2024/04/18 00:33:49;;;;;;;8.05;4.82;;;4.20;99.90;;;;;;5487574;26;20001;-73
2024/04/18 00:36:14;;;;;;;8.45;5.43;;;4.20;99.90;;;;;;5487720;26;20002;-75
2024/04/18 00:38:40;;;;;;;6.72;4.97;;;4.20;99.90;;;;;;5487896;26;20451;-74
2024/04/18 00:41:07;;;;;;;8.25;5.53;;;4.20;99.90;;;;;;5488321;26;20002;-71
2024/04/18 00:43:32;;;;;;;6.90;5.05;;;4.20;99.90;;;;;;5486978;26;19998;-74
2024/04/18 00:45:58;;;;;;;8.70;5.80;;;4.20;99.90;;;;;;5466249;26;20012;-74
2024/04/18 00:48:25;;;;;;;8.40;5.07;;;4.10;99.90;;;;;;5487234;26;20050;-74
2024/04/18 00:50:55;;;;;;;8.68;5.35;;;4.10;99.90;;;;;;5487104;26;20009;-74
2024/04/18 00:53:22;;;;;;;7.10;4.97;;;4.10;99.90;;;;;;5487389;26;20137;-74
2024/04/18 00:55:49;;;;;;;8.30;4.88;;;4.10;99.90;;;;;;5487664;26;19998;-75
2024/04/18 00:58:15;;;;;;;4.65;3.75;;;4.10;99.90;;;;;;5483739;26;20030;-74
2024/04/18 01:00:41;;;;;;;5.05;3.83;;;4.10;99.90;;;;;;5487765;26;20002;-75
2024/04/18 01:03:07;;;;;;;5.28;3.35;;;4.00;99.90;;;;;;5487693;26;19994;-73
2024/04/18 01:05:33;;;;;;;5.07;3.70;;;4.10;99.90;;;;;;5487449;26;20010;-73
2024/04/18 01:07:59;;;;;;;5.88;4.47;;;4.10;99.90;;;;;;5487223;26;20083;-72
2024/04/18 01:10:25;;;;;;;7.28;4.78;;;4.20;99.90;;;;;;5487373;26;20362;-72
2024/04/18 01:12:57;;;;;;;10.43;4.65;;;4.20;99.90;;;;;;5475517;26;20072;-72
2024/04/18 01:15:23;;;;;;;8.68;4.78;;;4.20;99.90;;;;;;5470792;26;19999;-72
2024/04/18 01:17:49;;;;;;;5.97;4.43;;;4.20;99.90;;;;;;5486380;26;19997;-73
2024/04/18 01:20:16;;;;;;;7.22;4.60;;;4.20;99.90;;;;;;5486895;26;20046;-72
2024/04/18 01:22:41;;;;;;;4.65;3.95;;;4.30;99.90;;;;;;5487205;26;20002;-73
2024/04/18 01:25:07;;;;;;;7.18;3.72;;;4.30;99.90;;;;;;5487179;26;20005;-73
2024/04/18 01:27:33;;;;;;;4.72;3.53;;;4.40;99.90;;;;;;5486728;26;20027;-72
2024/04/18 01:29:58;;;;;;;3.88;3.47;;;4.40;99.90;;;;;;5486864;26;19994;-72
2024/04/18 01:32:25;;;;;;;6.35;3.70;;;4.30;99.90;;;;;;5487113;26;20002;-72
2024/04/18 01:34:51;;;;;;;5.90;3.78;;;4.30;99.90;;;;;;5486562;26;20327;-73
2024/04/18 01:37:16;;;;;;;7.22;3.33;;;4.30;99.90;;;;;;5486546;26;20012;-73
2024/04/18 01:39:43;;;;;;;5.22;4.00;;;4.30;99.90;;;;;;5487143;26;20006;-72
2024/04/18 01:42:10;;;;;;;6.13;3.70;;;4.30;99.90;;;;;;5486170;26;20067;-75
2024/04/18 01:44:35;;;;;;;6.13;3.88;;;4.30;99.90;;;;;;5480289;26;20009;-72
2024/04/18 01:47:01;;;;;;;7.55;4.15;;;4.20;99.90;;;;;;5475027;26;20042;-73
2024/04/18 01:49:26;;;;;;;5.93;4.13;;;4.00;99.90;;;;;;5486144;26;19994;-72
2024/04/18 01:51:52;;;;;;;5.78;4.22;;;4.00;99.90;;;;;;5485659;26;20038;-72
2024/04/18 01:54:18;;;;;;;2.67;1.73;;;3.90;99.90;;;;;;5486816;26;20002;-73
2024/04/18 01:56:43;;;;;;;3.30;2.20;;;3.90;99.90;;;;;;5478327;26;20329;-73
2024/04/18 01:59:09;;;;;;;3.30;2.20;;;3.80;99.90;;;;;;5490024;26;19998;-73
2024/04/18 02:01:34;;;;;;;3.97;1.90;;;3.80;99.90;;;;;;5490397;26;19994;-73
2024/04/18 02:04:00;;;;;;;2.65;2.33;;;3.80;99.90;;;;;;5490490;26;20074;-73
2024/04/18 02:06:25;;;;;;;3.42;2.30;;;3.80;99.90;;;;;;5490130;26;19999;-73
2024/04/18 02:08:51;;;;;;;3.47;2.13;;;3.80;99.90;;;;;;5489646;26;19990;-73
2024/04/18 02:11:16;;;;;;;4.82;2.30;;;3.70;99.90;;;;;;5490487;26;20001;-72
2024/04/18 02:13:42;;;;;;;2.65;1.92;;;3.70;99.90;;;;;;5487756;26;20034;-73
2024/04/18 02:16:08;;;;;;;2.30;1.75;;;3.70;99.90;;;;;;5482574;26;20005;-73
2024/04/18 02:18:34;;;;;;;3.30;2.47;;;3.70;99.90;;;;;;5490165;26;19998;-74
2024/04/18 02:20:59;;;;;;;3.72;2.92;;;3.60;99.90;;;;;;5490127;26;20527;-74
2024/04/18 02:23:26;;;;;;;4.80;2.53;;;3.60;99.90;;;;;;5489428;26;20000;-74
2024/04/18 02:25:51;;;;;;;3.78;2.85;;;3.60;99.90;;;;;;5489528;26;20005;-73
2024/04/18 02:28:17;;;;;;;3.08;2.40;;;3.70;99.90;;;;;;5489038;26;19998;-73
2024/04/18 02:30:43;;;;;;;5.22;3.33;;;3.70;99.90;;;;;;5480515;26;20351;-74
2024/04/18 02:33:08;;;;;;;3.17;2.67;;;3.70;99.90;;;;;;5488640;26;20010;-74
2024/04/18 02:35:34;;;;;;;3.63;2.50;;;3.70;99.90;;;;;;5490192;26;19998;-74
2024/04/18 02:38:00;;;;;;;3.83;2.80;;;3.70;99.90;;;;;;5489391;26;20630;-74
2024/04/18 02:40:26;;;;;;;4.40;2.55;;;3.80;99.90;;;;;;5490209;26;20316;-73
2024/04/18 02:42:51;;;;;;;3.97;2.58;;;3.70;99.90;;;;;;5488892;26;20030;-74
2024/04/18 02:45:17;;;;;;;5.13;2.70;;;3.80;99.90;;;;;;5471941;26;20002;-74
2024/04/18 02:47:43;;;;;;;3.10;2.67;;;3.80;99.90;;;;;;5488017;26;20002;-74
2024/04/18 02:50:09;;;;;;;4.45;2.83;;;3.80;99.90;;;;;;5489133;26;20013;-74
2024/04/18 02:52:34;;;;;;;4.10;2.72;;;3.80;99.90;;;;;;5489235;26;20073;-75
2024/04/18 02:55:00;;;;;;;4.47;2.80;;;3.80;99.90;;;;;;5457684;26;20004;-75
2024/04/18 02:57:25;;;;;;;4.25;3.25;;;3.80;99.90;;;;;;5479574;26;20004;-74
2024/04/18 02:59:51;;;;;;;5.22;2.90;;;3.80;99.90;;;;;;5489505;26;19994;-75
2024/04/18 03:02:16;;;;;;;2.85;2.50;;;3.70;99.90;;;;;;5488811;26;20079;-74
2024/04/18 03:04:42;;;;;;;4.00;3.00;;;3.70;99.90;;;;;;5489834;26;20447;-75
2024/04/18 03:07:08;;;;;;;3.88;2.72;;;3.70;99.90;;;;;;5488095;26;20000;-75
2024/04/18 03:09:33;;;;;;;3.40;2.40;;;3.70;99.90;;;;;;5489659;26;19994;-75
2024/04/18 03:11:59;;;;;;;3.47;2.65;;;3.70;99.90;;;;;;5488604;26;19990;-76
2024/04/18 03:14:24;;;;;;;3.10;2.60;;;3.70;99.90;;;;;;5471950;26;20017;-75
2024/04/18 03:16:50;;;;;;;3.85;2.53;;;3.70;99.90;;;;;;5485718;26;20017;-76
2024/04/18 03:19:16;;;;;;;4.47;2.72;;;3.70;99.90;;;;;;5489694;26;20074;-75
2024/04/18 03:21:43;;;;;;;3.78;3.05;;;3.70;99.90;;;;;;5488524;26;20032;-74
2024/04/18 03:24:19;;;;;;;6.30;3.50;;;3.70;99.90;;;;;;5489319;26;20300;-75
2024/04/18 03:26:45;;;;;;;4.43;3.60;;;3.70;99.90;;;;;;5488744;26;20026;-75
2024/04/18 03:29:12;;;;;;;3.40;2.95;;;3.60;99.90;;;;;;5456804;26;20009;-75
2024/04/18 03:31:40;;;;;;;3.80;2.95;;;3.60;99.90;;;;;;5489267;26;19994;-75
2024/04/18 03:34:05;;;;;;;4.15;2.88;;;3.60;99.90;;;;;;5488247;26;20334;-74
2024/04/18 03:36:34;;;;;;;5.38;3.72;;;3.60;99.90;;;;;;5488720;26;20016;-74
2024/04/18 03:39:01;;;;;;;5.22;4.00;;;3.60;99.90;;;;;;5488986;26;19998;-74
2024/04/18 03:41:26;;;;;;;4.53;4.13;;;3.60;99.90;;;;;;5489015;26;19994;-74
2024/04/18 03:43:53;;;;;;;5.47;4.45;;;3.60;99.90;;;;;;5488674;26;20346;-75
2024/04/18 03:46:19;;;;;;;5.63;4.05;;;3.50;99.90;;;;;;5469652;26;20026;-75
2024/04/18 03:48:45;;;;;;;5.90;3.83;;;3.60;99.90;;;;;;5488365;26;20013;-74
2024/04/18 03:51:11;;;;;;;6.57;4.15;;;3.60;99.90;;;;;;5488191;26;20009;-75
2024/04/18 03:53:37;;;;;;;5.47;4.68;;;3.50;99.90;;;;;;5488366;26;19994;-75
2024/04/18 03:56:02;;;;;;;8.35;4.80;;;3.60;99.90;;;;;;5488943;26;20320;-73
2024/04/18 03:58:28;;;;;;;6.65;5.13;;;3.60;99.90;;;;;;5474582;26;20108;-74
2024/04/18 04:00:54;;;;;;;7.60;5.75;;;3.60;99.90;;;;;;5487385;26;20020;-75
2024/04/18 04:03:19;;;;;;;7.63;5.60;;;3.60;99.90;;;;;;5484083;26;20323;-74
2024/04/18 04:05:45;;;;;;;5.95;4.93;;;3.70;99.90;;;;;;5488014;26;20075;-75
2024/04/18 04:08:10;;;;;;;6.30;5.13;;;3.70;99.90;;;;;;5487266;26;20009;-73
2024/04/18 04:10:36;;;;;;;6.45;5.32;;;3.60;99.90;;;;;;5488536;26;20002;-74
2024/04/18 04:13:02;;;;;;;8.45;7.05;;;3.60;99.90;;;;;;5476140;26;20440;-69
2024/04/18 04:15:27;;;;;;;10.35;6.63;;;3.60;99.90;;;;;;5473305;26;20020;-71
2024/04/18 04:17:54;;;;;;;9.85;6.63;;;3.60;99.90;;;;;;5484430;26;20002;-71
2024/04/18 04:20:19;;;;;;;8.60;6.53;;;3.60;99.90;;;;;;5450102;26;20016;-71
2024/04/18 04:22:45;;;;;;;11.25;7.43;;;3.60;99.90;;;;;;5446159;26;20435;-71
2024/04/18 04:25:10;;;;;;;11.05;7.70;;;3.60;99.90;;;;;;5454630;26;20002;-71
2024/04/18 04:27:36;;;;;;;9.05;7.28;;;3.60;99.90;;;;;;5447146;26;19998;-70
2024/04/18 04:30:01;;;;;;;10.23;8.25;;;3.50;99.90;;;;;;5476716;26;20392;-70
2024/04/18 04:32:27;;;;;;;11.55;7.93;;;3.60;99.90;;;;;;5486070;26;20013;-71
2024/04/18 04:34:53;;;;;;;10.23;7.97;;;3.60;99.90;;;;;;5454799;26;20013;-71
2024/04/18 04:37:19;;;;;;;11.43;8.10;;;3.60;99.90;;;;;;5479410;26;20070;-71
2024/04/18 04:39:50;;;;;;;10.80;8.00;;;3.60;99.90;;;;;;5476649;26;20026;-71
2024/04/18 04:42:16;;;;;;;12.75;8.25;;;3.50;99.90;;;;;;5476265;26;20424;-72
2024/04/18 04:44:41;;;;;;;9.77;7.85;;;3.50;99.90;;;;;;5478658;26;20018;-72
2024/04/18 04:47:10;;;;;;;10.80;8.52;;;3.50;99.90;;;;;;5471638;26;20443;-72
2024/04/18 04:49:36;;;;;;;14.65;8.40;;;3.50;99.90;;;;;;5475041;26;19990;-71
2024/04/18 04:52:03;;;;;;;9.10;7.82;;;3.60;99.90;;;;;;5472885;26;20018;-71
2024/04/18 04:54:28;;;;;;;12.02;8.52;;;3.60;99.90;;;;;;5473749;26;20028;-70
2024/04/18 04:56:54;;;;;;;14.73;8.68;;;3.60;99.90;;;;;;5475621;26;20426;-72
2024/04/18 04:59:19;;;;;;;11.77;8.68;;;3.60;99.90;;;;;;5484657;26;20329;-74
2024/04/18 05:01:45;;;;;;;11.48;8.38;;;3.70;99.90;;;;;;5482651;26;20137;-70
2024/04/18 05:04:12;;;;;;;10.18;8.35;;;3.70;99.90;;;;;;5485856;26;20012;-70
2024/04/18 05:06:38;;;;;;;11.73;9.07;;;3.80;99.90;;;;;;5478702;26;20460;-72
2024/04/18 05:09:04;;;;;;;11.02;8.25;;;3.80;99.90;;;;;;5483872;26;20006;-71
2024/04/18 05:11:30;;;;;;;13.63;9.32;;;3.90;99.90;;;;;;5481407;26;19998;-74
2024/04/18 05:13:55;;;;;;;14.38;8.80;;;3.80;99.90;;;;;;5453476;26;20423;-75
2024/04/18 05:16:21;;;;;;;13.63;9.82;;;3.90;99.90;;;;;;5451542;26;20137;-74
2024/04/18 05:18:47;;;;;;;13.00;9.32;;;3.90;99.90;;;;;;5484410;26;20009;-75
2024/04/18 05:21:12;;;;;;;12.25;8.93;;;4.00;99.90;;;;;;5486286;26;20001;-74
2024/04/18 05:23:38;;;;;;;11.63;9.05;;;4.10;99.90;;;;;;5485156;26;20074;-72
2024/04/18 05:26:03;;;;;;;13.02;8.80;;;4.10;99.90;;;;;;5444172;26;20006;-73
2024/04/18 05:28:40;;;;;;;13.00;9.00;;;4.10;99.90;;;;;;5484249;26;20024;-72
2024/04/18 05:31:06;;;;;;;12.75;9.65;;;4.20;99.90;;;;;;5481090;26;20022;-75
2024/04/18 05:33:32;;;;;;;11.00;8.43;;;4.20;99.90;;;;;;5485858;26;20068;-76
2024/04/18 05:35:58;;;;;;;10.77;8.98;;;4.20;99.90;;;;;;5488954;26;20995;-73
2024/04/18 05:38:24;;;;;;;10.52;8.32;;;4.30;99.90;;;;;;5481858;26;20002;-75
2024/04/18 05:40:50;;;;;;;12.00;8.32;;;4.30;99.90;;;;;;5482358;26;20066;-73
2024/04/18 05:43:16;;;;;;;12.63;8.57;;;4.30;99.90;;;;;;5488127;26;20013;-74
2024/04/18 05:45:48;;;;;;;10.23;8.13;;;4.40;99.90;;;;;;5484859;26;20013;-74
2024/04/18 05:48:15;;;;;;;11.05;9.25;;;4.40;99.90;;;;;;5479738;26;20086;-73
2024/04/18 05:50:41;;;;;;;9.32;7.68;;;4.30;99.90;;;;;;5483313;26;20024;-75
2024/04/18 05:53:07;;;;;;;11.50;9.45;;;4.40;99.90;;;;;;5484114;26;19998;-73
2024/04/18 05:55:33;;;;;;;11.18;10.05;;;4.30;99.90;;;;;;5460723;26;20462;-73
2024/04/18 05:57:59;;;;;;;12.48;8.85;;;4.30;99.90;;;;;;5479106;26;20287;-73
2024/04/18 06:00:25;;;;;;;12.75;9.65;;;4.30;99.90;;;;;;5497670;26;20009;-74
2024/04/18 06:02:51;;;;;;;11.35;9.10;;;4.30;99.90;;;;;;5486215;26;20005;-73
2024/04/18 06:05:16;;;;;;;11.75;9.80;;;4.30;99.90;;;;;;5471594;26;20457;-71
2024/04/18 06:07:42;;;;;;;11.90;9.48;;;4.30;99.90;;;;;;5489002;26;20095;-73
2024/04/18 06:10:08;;;;;;;14.50;10.27;;;4.30;99.90;;;;;;5490100;26;19998;-73
2024/04/18 06:12:33;;;;;;;11.15;8.93;;;4.40;99.90;;;;;;5478449;26;20474;-73
2024/04/18 06:14:59;;;;;;;13.32;9.10;;;4.40;99.90;;;;;;5488892;26;20148;-73
2024/04/18 06:17:24;;;;;;;13.20;9.50;;;4.40;99.90;;;;;;5488910;26;20010;-73
2024/04/18 06:19:53;;;;;;;11.32;9.00;;;4.40;99.90;;;;;;5477220;26;19994;-72
2024/04/18 06:22:19;;;;;;;11.30;9.43;;;4.60;99.90;;;;;;5488437;26;19998;-72
2024/04/18 06:24:44;;;;;;;12.13;9.07;;;4.70;99.90;;;;;;5484734;26;20039;-73
2024/04/18 06:27:10;;;;;;;13.70;7.88;;;4.80;99.90;;;;;;5484696;26;20078;-74
2024/04/18 06:29:36;;;;;;;12.32;9.73;;;4.80;99.90;;;;;;5449353;26;19998;-72
2024/04/18 06:32:02;;;;;;;11.82;9.00;;;4.80;99.90;;;;;;5489333;26;20009;-73
2024/04/18 06:34:28;;;;;;;12.07;8.70;;;4.80;99.90;;;;;;5489654;26;20449;-73
2024/04/18 06:36:54;;;;;;;10.55;8.70;;;4.90;99.90;;;;;;5456921;26;20001;-73
2024/04/18 06:39:20;;;;;;;12.63;9.70;;;4.90;99.90;;;;;;5489864;26;20376;-72
2024/04/18 06:41:45;;;;;;;11.07;8.55;;;5.00;99.90;;;;;;5488205;26;20033;-72
2024/04/18 06:44:11;;;;;;;11.73;9.05;;;5.10;99.90;;;;;;5488492;26;20070;-72
2024/04/18 06:46:38;;;;;;;11.95;9.25;;;5.10;99.90;;;;;;5488648;26;20009;-72
2024/04/18 06:49:04;;;;;;;11.35;8.63;;;5.10;99.90;;;;;;5489388;26;20002;-72
2024/04/18 06:51:29;;;;;;;10.52;8.82;;;5.20;99.90;;;;;;5489082;26;20074;-72
2024/04/18 06:53:55;;;;;;;9.10;8.18;;;5.30;99.90;;;;;;5489140;26;20587;-72
2024/04/18 06:56:21;;;;;;;8.68;7.70;;;5.30;99.90;;;;;;5484854;26;20012;-73
2024/04/18 06:58:46;;;;;;;10.98;7.60;;;5.20;99.90;;;;;;5487152;26;20002;-72
2024/04/18 07:01:12;;;;;;;8.20;7.28;;;5.20;99.90;;;;;;5489283;26;20013;-72
2024/04/18 07:03:37;;;;;;;9.98;8.98;;;5.20;99.90;;;;;;5485551;26;20013;-72
2024/04/18 07:06:03;;;;;;;10.30;8.43;;;5.20;99.90;;;;;;5484799;26;20070;-72
2024/04/18 07:08:29;;;;;;;14.13;8.93;;;5.30;99.90;;;;;;5488225;26;20012;-72
2024/04/18 07:10:54;;;;;;;10.50;8.02;;;5.30;99.90;;;;;;5489652;26;20316;-72
2024/04/18 07:13:20;;;;;;;10.30;7.53;;;5.30;99.90;;;;;;5474110;26;20014;-72
2024/04/18 07:15:46;;;;;;;8.10;7.03;;;5.40;99.90;;;;;;5488521;26;20013;-73
2024/04/18 07:18:11;;;;;;;8.38;6.38;;;5.50;99.90;;;;;;5488128;26;20425;-73
2024/04/18 07:20:37;;;;;;;5.00;4.50;;;5.60;99.90;;;;;;5486451;26;20002;-73
2024/04/18 07:23:03;;;;;;;5.28;4.78;;;5.80;99.90;;;;;;5488667;26;20323;-73
2024/04/18 07:25:29;;;;;;;6.20;5.55;;;5.90;99.90;;;;;;5489136;26;19994;-73
2024/04/18 07:27:54;;;;;;;6.35;5.43;;;6.00;99.90;;;;;;5484013;26;20070;-73
2024/04/18 07:30:20;;;;;;;6.68;5.95;;;6.10;99.90;;;;;;5486752;26;20009;-73
2024/04/18 07:32:47;;;;;;;7.07;5.65;;;6.20;99.90;;;;;;5488374;26;20419;-73
2024/04/18 07:35:12;;;;;;;9.23;5.90;;;6.20;99.90;;;;;;5488882;26;19998;-73
2024/04/18 07:37:38;;;;;;;5.85;5.30;;;6.20;99.90;;;;;;5488215;26;20328;-73
2024/04/18 07:40:11;;;;;;;5.90;5.30;;;6.20;99.90;;;;;;5489009;26;19998;-73
2024/04/18 07:42:37;;;;;;;5.00;4.50;;;6.20;99.90;;;;;;5482233;26;19994;-73
2024/04/18 07:45:03;;;;;;;4.38;3.83;;;6.20;99.90;;;;;;5488577;26;20453;-73
2024/04/18 07:47:28;;;;;;;5.20;3.97;;;6.20;99.90;;;;;;5455693;26;20440;-73
2024/04/18 07:49:54;;;;;;;5.13;4.63;;;6.30;99.90;;;;;;5487942;26;20016;-73
2024/04/18 07:52:19;;;;;;;4.93;4.45;;;6.20;99.90;;;;;;5488049;26;20100;-73
2024/04/18 07:54:45;;;;;;;5.25;4.40;;;6.20;99.90;;;;;;5487975;26;20006;-73
2024/04/18 07:57:11;;;;;;;6.57;4.43;;;6.30;99.90;;;;;;5477223;26;19998;-73
2024/04/18 07:59:37;;;;;;;7.63;4.32;;;6.30;99.90;;;;;;5488859;26;19998;-73
2024/04/18 08:02:03;;;;;;;5.32;3.67;;;6.40;99.90;;;;;;5488101;26;20396;-73
2024/04/18 08:04:29;;;;;;;5.60;3.97;;;6.50;99.90;;;;;;5487898;26;20523;-73
2024/04/18 08:06:54;;;;;;;5.93;3.97;;;6.50;99.90;;;;;;5487930;26;20013;-73
2024/04/18 08:09:20;;;;;;;5.93;4.38;;;6.60;99.90;;;;;;5456546;26;20435;-73
2024/04/18 08:11:46;;;;;;;6.65;5.53;;;6.60;99.90;;;;;;5482589;26;20022;-73
2024/04/18 08:14:12;;;;;;;7.68;5.25;;;6.50;99.90;;;;;;5473101;26;19997;-73
2024/04/18 08:16:37;;;;;;;9.93;6.25;;;6.50;99.90;;;;;;5474241;26;20010;-73
2024/04/18 08:19:03;;;;;;;9.93;6.75;;;6.50;99.90;;;;;;5478008;26;20016;-74
2024/04/18 08:21:29;;;;;;;7.75;6.93;;;6.50;99.90;;;;;;5472181;26;20348;-72
2024/04/18 08:23:56;;;;;;;8.25;6.80;;;6.40;99.90;;;;;;5487848;26;20182;-72
2024/04/18 08:26:22;;;;;;;8.50;6.82;;;6.30;99.90;;;;;;5487819;26;19990;-73
2024/04/18 08:28:48;;;;;;;9.52;7.05;;;6.30;99.90;;;;;;5479992;26;20075;-73
2024/04/18 08:31:13;;;;;;;8.80;5.30;;;6.30;99.90;;;;;;5487859;26;20039;-72
2024/04/18 08:33:40;;;;;;;5.97;5.18;;;6.40;99.90;;;;;;5489243;26;20074;-73
2024/04/18 08:36:06;;;;;;;9.98;6.47;;;6.30;99.90;;;;;;5497166;26;20006;-72
2024/04/18 08:38:31;;;;;;;10.38;6.78;;;6.20;99.90;;;;;;5499200;26;20017;-71
2024/04/18 08:41:10;;;;;;;10.88;6.93;;;6.10;99.90;;;;;;5496446;26;20008;-72
2024/04/18 08:43:36;;;;;;;8.05;5.95;;;6.10;99.90;;;;;;5489896;26;20099;-72
2024/04/18 08:46:04;;;;;;;10.20;5.60;;;6.20;99.90;;;;;;5471053;26;20581;-73
2024/04/18 08:48:32;;;;;;;8.18;5.45;;;6.20;99.90;;;;;;5474208;26;20009;-72
2024/04/18 08:51:00;;;;;;;8.05;5.53;;;6.30;99.90;;;;;;5487055;26;20017;-71
2024/04/18 08:53:26;;;;;;;9.82;5.03;;;6.30;99.90;;;;;;5464529;26;20039;-73
2024/04/18 08:55:56;;;;;;;5.57;4.03;;;6.30;99.90;;;;;;5480730;26;20492;-72
2024/04/18 08:58:22;;;;;;;6.40;4.38;;;6.30;99.90;;;;;;5473133;26;20207;-72
2024/04/18 09:00:48;;;;;;;7.85;5.10;;;6.30;99.90;;;;;;5466227;26;19999;-72
2024/04/18 09:03:14;;;;;;;7.65;4.63;;;6.40;99.90;;;;;;5482586;26;20001;-72
2024/04/18 09:05:43;;;;;;;8.88;5.38;;;6.50;99.90;;;;;;5487227;26;20002;-72
2024/04/18 09:08:09;;;;;;;5.60;4.70;;;6.60;99.90;;;;;;5476074;26;20074;-72
2024/04/18 09:10:35;;;;;;;7.38;4.95;;;6.80;99.90;;;;;;5483843;26;20061;-72
2024/04/18 09:13:01;;;;;;;8.68;5.10;;;7.00;99.90;;;;;;5489174;26;20001;-72
2024/04/18 09:15:26;;;;;;;6.55;4.93;;;7.10;99.90;;;;;;5480038;26;20442;-72
2024/04/18 09:18:03;;;;;;;6.10;5.50;;;7.20;99.90;;;;;;5478634;26;20062;-72
2024/04/18 09:20:37;;;;;;;7.05;4.78;;;7.20;99.90;;;;;;5487909;26;20005;-72
2024/04/18 09:23:03;;;;;;;6.82;4.13;;;7.40;99.90;;;;;;5478124;26;20384;-73
2024/04/18 09:25:30;;;;;;;8.27;4.30;;;7.40;99.90;;;;;;5472254;26;19999;-72
2024/04/18 09:27:56;;;;;;;7.45;4.38;;;7.40;99.90;;;;;;5483676;26;20324;-73
2024/04/18 09:30:22;;;;;;;7.70;4.68;;;7.50;99.90;;;;;;5483573;26;20012;-72
2024/04/18 09:32:49;;;;;;;6.07;4.60;;;7.70;99.90;;;;;;5481404;26;20013;-73
2024/04/18 09:35:16;;;;;;;7.32;4.15;;;7.90;99.90;;;;;;5490100;26;19998;-73
2024/04/18 09:37:43;;;;;;;4.40;4.00;;;8.00;99.90;;;;;;5474781;26;19999;-73
2024/04/18 09:40:11;;;;;;;4.95;4.15;;;8.20;99.90;;;;;;5482837;26;20054;-73
2024/04/18 09:42:51;;;;;;;7.30;4.20;;;8.40;99.90;;;;;;5488884;26;20009;-73
2024/04/18 09:45:19;;;;;;;8.43;4.90;;;8.50;99.90;;;;;;5489069;26;19994;-72
2024/04/18 09:47:47;;;;;;;7.32;3.95;;;8.80;99.90;;;;;;5481443;26;20634;-72
2024/04/18 09:50:13;;;;;;;6.10;3.83;;;9.00;99.90;;;;;;5483009;26;19998;-73
2024/04/18 09:52:40;;;;;;;5.13;4.20;;;9.00;99.90;;;;;;5483522;26;20006;-72
2024/04/18 09:55:07;;;;;;;7.80;3.60;;;9.20;99.90;;;;;;5437358;26;19999;-73
2024/04/18 09:57:35;;;;;;;5.13;3.67;;;9.30;99.90;;;;;;5479484;26;20013;-72
2024/04/18 10:00:02;;;;;;;6.30;3.75;;;9.50;99.90;;;;;;5483378;26;20327;-72
2024/04/18 10:02:29;;;;;;;5.93;3.60;;;9.70;99.90;;;;;;5468971;26;20005;-73
2024/04/18 10:04:55;;;;;;;9.88;5.15;;;9.80;99.90;;;;;;5483574;26;20009;-73
2024/04/18 10:07:23;;;;;;;5.78;3.25;;;9.70;99.90;;;;;;5488133;26;20338;-72
2024/04/18 10:09:50;;;;;;;6.20;3.35;;;9.90;99.90;;;;;;5479755;26;20010;-73
2024/04/18 10:12:18;;;;;;;5.40;3.17;;;10.30;99.90;;;;;;5468918;26;20013;-73
2024/04/18 10:14:44;;;;;;;3.97;3.53;;;10.60;99.90;;;;;;5472718;26;20463;-73
2024/04/18 10:17:24;;;;;;;4.22;2.83;;;10.70;99.90;;;;;;5467061;26;20105;-72
2024/04/18 10:19:53;;;;;;;3.40;1.77;;;9.60;99.90;;;;;;5477684;26;19998;-72
2024/04/18 10:22:22;;;;;;;5.72;2.38;;;7.80;99.90;;;;;;5487735;26;20006;-74
2024/04/18 10:24:50;;;;;;;3.63;2.28;;;6.90;99.90;;;;;;5472465;26;20007;-74
2024/04/18 10:27:20;;;;;;;4.13;2.55;;;6.10;99.90;;;;;;5483824;26;19994;-74
2024/04/18 10:29:59;;;;;;;5.67;3.80;;;5.60;99.90;;;;;;5484252;26;20004;-74
2024/04/18 10:32:28;;;;;;;4.88;3.47;;;5.20;99.90;;;;;;5482148;26;20074;-74
2024/04/18 10:34:54;;;;;;;4.93;2.85;;;5.00;99.90;;;;;;5471269;26;20021;-74
2024/04/18 10:37:23;;;;;;;8.57;4.18;;;4.80;99.90;;;;;;5488988;26;20463;-74
2024/04/18 10:39:49;;;;;;;5.50;4.03;;;4.70;99.90;;;;;;5488860;26;19998;-75
2024/04/18 10:42:19;;;;;;;6.22;4.90;;;;;;;;;;5471761;26;20013;-75
2024/04/18 10:44:50;;;;;;;8.43;5.47;;;;;;;;;;5485867;26;19998;-75
2024/04/18 10:47:20;;;;;;;7.18;5.22;;;4.30;99.90;;;;;;5475980;26;20324;-75
2024/04/18 10:49:46;;;;;;;6.43;5.18;;;4.20;99.90;;;;;;5485515;26;20002;-74
2024/04/18 10:52:15;;;;;;;8.82;5.10;;;4.20;99.90;;;;;;5478743;26;20454;-75
2024/04/18 10:54:41;;;;;;;7.85;5.03;;;4.20;99.90;;;;;;5480052;26;20014;-74
2024/04/18 10:57:08;;;;;;;6.53;5.10;;;4.20;99.90;;;;;;5487708;26;20090;-74
2024/04/18 10:59:43;;;;;;;8.25;5.10;;;4.30;99.90;;;;;;5478419;26;19998;-73
2024/04/18 11:02:10;;;;;;;7.50;4.80;;;4.40;99.90;;;;;;5488154;26;20459;-74
2024/04/18 11:04:36;;;;;;;4.80;3.70;;;4.50;99.90;;;;;;5471852;26;19995;-73
2024/04/18 11:07:01;;;;;;;4.90;3.42;;;4.60;99.90;;;;;;5488415;26;20009;-74
2024/04/18 11:09:27;;;;;;;5.40;3.08;;;4.80;99.90;;;;;;5488960;26;19998;-74
2024/04/18 11:11:54;;;;;;;4.20;3.63;;;4.80;99.90;;;;;;5454934;26;20006;-74
2024/04/18 11:14:25;;;;;;;5.18;3.97;;;4.90;99.90;;;;;;5480293;26;19998;-73
2024/04/18 11:17:00;;;;;;;6.65;3.67;;;5.10;99.90;;;;;;5481639;26;20507;-75
2024/04/18 11:19:26;;;;;;;5.68;4.00;;;5.50;99.90;;;;;;5486441;26;19995;-74
2024/04/18 11:21:52;;;;;;;4.60;3.88;;;5.90;99.90;;;;;;5474686;26;20095;-75
2024/04/18 11:24:17;;;;;;;4.93;3.80;;;6.40;99.90;;;;;;5488852;26;20006;-74
2024/04/18 11:26:43;;;;;;;4.88;4.10;;;6.90;99.90;;;;;;5488106;26;20395;-74
2024/04/18 11:29:09;;;;;;;12.20;5.63;;;7.50;99.90;;;;;;5486944;26;19998;-74
2024/04/18 11:31:34;;;;;;;4.45;4.03;;;8.00;99.90;;;;;;5487882;26;20005;-73
2024/04/18 11:34:00;;;;;;;5.38;4.65;;;8.10;99.90;;;;;;5488898;26;20006;-73
2024/04/18 11:36:25;;;;;;;7.07;4.45;;;8.60;99.90;;;;;;5488856;26;19994;-73
2024/04/18 11:38:51;;;;;;;4.90;4.10;;;8.80;99.90;;;;;;5488089;26;20379;-74
2024/04/18 11:41:19;;;;;;;7.45;4.80;;;9.10;99.90;;;;;;5488164;26;20448;-77
2024/04/18 11:43:45;;;;;;;9.65;4.43;;;9.70;99.90;;;;;;5487270;26;20023;-74
2024/04/18 11:46:11;;;;;;;5.00;4.15;;;10.00;99.90;;;;;;5486394;26;20448;-74
2024/04/18 11:48:39;;;;;;;5.15;4.45;;;10.00;99.90;;;;;;5482267;26;20008;-75
2024/04/18 11:51:05;;;;;;;4.88;4.38;;;9.70;99.90;;;;;;5488111;26;19998;-75
2024/04/18 11:53:30;;;;;;;5.20;4.70;;;9.60;99.90;;;;;;5487172;26;20009;-76
2024/04/18 11:55:57;;;;;;;5.85;4.10;;;9.20;99.90;;;;;;5486314;26;20443;-77
2024/04/18 11:58:22;;;;;;;4.55;4.03;;;8.60;99.90;;;;;;5487702;26;20009;-75
2024/04/18 12:00:48;;;;;;;5.30;2.80;;;;;;;;;;5478367;26;19998;-76
2024/04/18 12:03:14;;;;;;;3.03;2.53;;;7.20;99.90;;;;;;5483917;26;20009;-76
2024/04/18 12:05:40;;;;;;;3.25;2.90;;;6.70;99.90;;;;;;5478549;26;20316;-76
2024/04/18 12:08:06;;;;;;;3.95;2.90;;;6.30;99.90;;;;;;5487434;26;20002;-75
2024/04/18 12:10:31;;;;;;;4.22;2.97;;;6.00;99.90;;;;;;5479632;26;20450;-74
2024/04/18 12:12:57;;;;;;;3.17;2.88;;;5.90;99.90;;;;;;5488361;26;19994;-74
2024/04/18 12:15:23;;;;;;;5.13;3.80;;;5.80;99.90;;;;;;5485856;26;19994;-75
2024/04/18 12:17:48;;;;;;;6.28;4.10;;;5.70;99.90;;;;;;5473982;26;20066;-75
2024/04/18 12:20:15;;;;;;;4.50;4.07;;;5.70;99.90;;;;;;5485659;26;19999;-76
2024/04/18 12:22:40;;;;;;;6.43;5.28;;;5.70;99.90;;;;;;5487849;26;20517;-75
2024/04/18 12:25:06;;;;;;;6.57;5.18;;;5.70;99.90;;;;;;5488134;26;20010;-76
2024/04/18 12:27:32;;;;;;;7.63;6.07;;;5.80;99.90;;;;;;5487779;26;20036;-75
2024/04/18 12:29:57;;;;;;;8.90;6.22;;;5.90;99.90;;;;;;5487858;26;20004;-76
2024/04/18 12:32:24;;;;;;;8.25;5.63;;;5.90;99.90;;;;;;5490454;26;20009;-76
2024/04/18 12:34:50;;;;;;;8.73;5.55;;;5.90;99.90;;;;;;5456231;26;20005;-75
2024/04/18 12:37:16;;;;;;;9.30;6.70;;;5.90;99.90;;;;;;5486689;26;20055;-75
2024/04/18 12:39:44;;;;;;;9.32;6.00;;;6.00;99.90;;;;;;5476200;26;20017;-72
2024/04/18 12:42:10;;;;;;;8.75;6.75;;;6.00;99.90;;;;;;5473247;26;20432;-72
2024/04/18 12:44:35;;;;;;;9.88;6.65;;;6.10;99.90;;;;;;5457716;26;20010;-72
2024/04/18 12:47:01;;;;;;;8.02;6.43;;;6.20;99.90;;;;;;5485389;26;20327;-73
2024/04/18 12:49:27;;;;;;;8.45;5.93;;;6.50;99.90;;;;;;5484717;26;20012;-69
2024/04/18 12:51:53;;;;;;;6.65;5.53;;;7.20;99.90;;;;;;5463669;26;20380;-73